createdAt,value
2023-02-11T00:02:06.864Z,103377.19
2023-02-11T00:04:39.937Z,103378.56
2023-02-11T00:07:12.804Z,103377.44
2023-02-11T00:09:47.632Z,103377.44
2023-02-11T00:12:20.733Z,103372.78
2023-02-11T00:14:53.950Z,103366.19
2023-02-11T00:17:28.369Z,103363.28
2023-02-11T00:20:01.182Z,103361.94
2023-02-11T00:22:34.194Z,103353.75
2023-02-11T00:25:07.498Z,103366.31
2023-02-11T00:27:40.648Z,103367.66
2023-02-11T00:30:14.165Z,103366.31
2023-02-11T00:32:48.547Z,103357.25
2023-02-11T00:35:21.927Z,103352.06
2023-02-11T00:37:55.494Z,103352.06
2023-02-11T00:40:28.424Z,103346.09
2023-02-11T00:43:01.112Z,103346.81
2023-02-11T00:45:34.062Z,103340.78
2023-02-11T00:48:09.505Z,103341.09
2023-02-11T00:50:43.915Z,103344.97
2023-02-11T00:53:17.217Z,103335.22
2023-02-11T00:55:50.368Z,103336.75
2023-02-11T00:58:23.661Z,103337.56
2023-02-11T01:00:56.889Z,103334.56
2023-02-11T01:03:32.486Z,103333.72
2023-02-11T01:06:06.318Z,103329.34
2023-02-11T01:08:39.693Z,103329.41
2023-02-11T01:11:17.465Z,103327.78
2023-02-11T01:13:51.754Z,103333.75
2023-02-11T01:16:24.610Z,103340.34
2023-02-11T01:19:00.897Z,103355.91
2023-02-11T01:21:33.694Z,103347.66
2023-02-11T01:24:06.985Z,103339.19
2023-02-11T01:26:39.858Z,103340.56
2023-02-11T01:29:14.553Z,103331.03
2023-02-11T01:31:47.430Z,103323.94
2023-02-11T01:34:21.453Z,103326.97
2023-02-11T01:36:58.830Z,103321.72
2023-02-11T01:39:34.869Z,103330.22
2023-02-11T01:42:12.382Z,103345.06
2023-02-11T01:44:45.665Z,103332.78
2023-02-11T01:47:18.626Z,103329.25
2023-02-11T01:50:01.626Z,103331.66
2023-02-11T01:52:40.848Z,103322.97
2023-02-11T01:55:38.469Z,103311.28
2023-02-11T01:58:11.325Z,103316.25
2023-02-11T02:00:44.171Z,103314.06
2023-02-11T02:03:22.420Z,103317.94
2023-02-11T02:06:08.684Z,103321.47
2023-02-11T02:08:45.720Z,103315.78
2023-02-11T02:11:19.133Z,103318.19
2023-02-11T02:13:52.495Z,103311.41
2023-02-11T02:16:38.025Z,103317.19
2023-02-11T02:19:33.521Z,103308.81
2023-02-11T02:22:50.359Z,103317.19
2023-02-11T02:25:41.393Z,103315.31
2023-02-11T02:28:37.130Z,103312.88
2023-02-11T02:31:33.926Z,103312.63
2023-02-11T02:34:14.872Z,103306.63
2023-02-11T02:36:56.697Z,103310.31
2023-02-11T02:39:34.883Z,103305.06
2023-02-11T02:42:09.442Z,103315.69
2023-02-11T02:44:42.366Z,103314.06
2023-02-11T02:47:15.440Z,103311.69
2023-02-11T02:49:50.096Z,103319.59
2023-02-11T02:52:36.433Z,103331.50
2023-02-11T02:55:36.087Z,103324.72
2023-02-11T02:58:35.766Z,103332.22
2023-02-11T03:01:19.872Z,103322.09
2023-02-11T03:04:02.245Z,103312.00
2023-02-11T03:06:47.018Z,103303.56
2023-02-11T03:09:25.940Z,103302.50
2023-02-11T03:11:58.914Z,103307.97
2023-02-11T03:14:33.376Z,103314.47
2023-02-11T03:17:09.121Z,103323.81
2023-02-11T03:19:45.005Z,103322.88
2023-02-11T03:22:25.780Z,103320.00
2023-02-11T03:24:58.991Z,103320.13
2023-02-11T03:27:42.598Z,103314.63
2023-02-11T03:30:20.111Z,103320.00
2023-02-11T03:32:56.904Z,103306.19
2023-02-11T03:35:36.857Z,103299.09
2023-02-11T03:38:15.455Z,103306.47
2023-02-11T03:40:48.698Z,103302.66
2023-02-11T03:43:24.074Z,103309.16
2023-02-11T03:45:58.165Z,103304.78
2023-02-11T03:48:34.102Z,103301.00
2023-02-11T03:51:09.166Z,103292.81
2023-02-11T03:53:45.567Z,103286.22
2023-02-11T03:56:22.821Z,103286.84
2023-02-11T03:58:55.918Z,103281.66
2023-02-11T04:01:28.660Z,103286.06
2023-02-11T04:04:01.483Z,103283.53
2023-02-11T04:06:34.221Z,103296.16
2023-02-11T04:09:08.908Z,103293.69
2023-02-11T04:11:41.761Z,103295.34
2023-02-11T04:14:14.682Z,103296.22
2023-02-11T04:16:47.273Z,103294.59
2023-02-11T04:19:20.119Z,103288.03
2023-02-11T04:21:53.118Z,103294.34
2023-02-11T04:24:27.090Z,103291.91
2023-02-11T04:26:59.911Z,103295.97
2023-02-11T04:29:33.159Z,103295.81
2023-02-11T04:32:06.235Z,103301.22
2023-02-11T04:34:39.524Z,103300.13
2023-02-11T04:37:12.391Z,103298.69
2023-02-11T04:39:46.740Z,103296.19
2023-02-11T04:42:19.594Z,103295.66
2023-02-11T04:44:52.522Z,103293.47
2023-02-11T04:47:25.230Z,103295.16
2023-02-11T04:49:58.495Z,103300.84
2023-02-11T04:52:31.226Z,103296.78
2023-02-11T04:55:06.212Z,103299.72
2023-02-11T04:57:39.275Z,103301.66
2023-02-11T05:00:12.425Z,103299.00
2023-02-11T05:02:45.176Z,103290.19
2023-02-11T05:05:18.118Z,103294.53
2023-02-11T05:07:51.056Z,103287.47
2023-02-11T05:10:25.379Z,103280.41
2023-02-11T05:12:58.113Z,103288.00
2023-02-11T05:15:31.057Z,103276.03
2023-02-11T05:18:03.719Z,103275.69
2023-02-11T05:20:38.966Z,103277.56
2023-02-11T05:23:12.587Z,103287.00
2023-02-11T05:25:46.812Z,103290.50
2023-02-11T05:28:19.648Z,103286.88
2023-02-11T05:30:52.684Z,103291.00
2023-02-11T05:33:25.657Z,103287.44
2023-02-11T05:36:00.182Z,103294.50
2023-02-11T05:38:33.394Z,103296.69
2023-02-11T05:41:07.857Z,103296.41
2023-02-11T05:43:42.113Z,103305.94
2023-02-11T05:46:15.042Z,103314.44
2023-02-11T05:48:47.916Z,103314.94
2023-02-11T05:51:20.785Z,103324.53
2023-02-11T05:53:53.712Z,103318.50
2023-02-11T05:56:27.948Z,103316.31
2023-02-11T05:59:00.887Z,103306.75
2023-02-11T06:01:33.522Z,103310.84
2023-02-11T06:04:06.492Z,103308.94
2023-02-11T06:06:39.674Z,103320.19
2023-02-11T06:09:12.684Z,103307.28
2023-02-11T06:11:46.571Z,103309.91
2023-02-11T06:14:19.401Z,103304.78
2023-02-11T06:16:52.333Z,103300.75
2023-02-11T06:19:24.945Z,103302.75
2023-02-11T06:21:59.729Z,103311.44
2023-02-11T06:24:58.638Z,103302.66
2023-02-11T06:27:27.228Z,103307.56
2023-02-11T06:30:00.106Z,103312.22
2023-02-11T06:32:48.852Z,103310.63
2023-02-11T06:35:21.766Z,103310.31
2023-02-11T06:37:54.746Z,103309.50
2023-02-11T06:40:27.782Z,103310.41
2023-02-11T06:43:01.879Z,103311.41
2023-02-11T06:45:34.678Z,103320.41
2023-02-11T06:48:07.643Z,103326.44
2023-02-11T06:50:40.448Z,103325.88
2023-02-11T06:53:13.602Z,103314.28
2023-02-11T06:55:46.631Z,103320.84
2023-02-11T06:58:20.925Z,103333.41
2023-02-11T07:00:53.830Z,103331.53
2023-02-11T07:03:27.917Z,103333.34
2023-02-11T07:06:03.178Z,103340.44
2023-02-11T07:08:37.527Z,103333.63
2023-02-11T07:11:12.140Z,103327.13
2023-02-11T07:13:46.511Z,103340.44
2023-02-11T07:16:22.959Z,103342.38
2023-02-11T07:18:55.931Z,103342.31
2023-02-11T07:21:29.274Z,103345.88
2023-02-11T07:24:02.397Z,103339.63
2023-02-11T07:27:10.956Z,103343.75
2023-02-11T07:29:45.987Z,103342.38
2023-02-11T07:32:18.923Z,103343.75
2023-02-11T07:34:51.855Z,103344.22
2023-02-11T07:37:24.495Z,103349.69
2023-02-11T07:39:57.269Z,103349.13
2023-02-11T07:42:30.009Z,103356.72
2023-02-11T07:45:04.405Z,103360.03
2023-02-11T07:47:38.142Z,103361.13
2023-02-11T07:50:11.540Z,103361.94
2023-02-11T07:52:44.524Z,103373.06
2023-02-11T07:55:17.348Z,103376.88
2023-02-11T07:57:50.814Z,103370.31
2023-02-11T08:00:25.072Z,103367.59
2023-02-11T08:02:58.320Z,103364.56
2023-02-11T08:05:31.188Z,103371.09
2023-02-11T08:08:05.622Z,103371.34
2023-02-11T08:10:38.519Z,103376.22
2023-02-11T08:13:11.407Z,103377.00
2023-02-11T08:15:45.455Z,103379.97
2023-02-11T08:18:18.334Z,103379.97
2023-02-11T08:20:51.687Z,103375.81
2023-02-11T08:23:31.058Z,103385.72
2023-02-11T08:26:08.295Z,103379.91
2023-02-11T08:28:42.712Z,103385.78
2023-02-11T08:31:19.857Z,103386.47
2023-02-11T08:33:54.625Z,103387.25
2023-02-11T08:36:30.485Z,103386.13
2023-02-11T08:39:17.906Z,103389.41
2023-02-11T08:41:53.704Z,103393.63
2023-02-11T08:44:26.515Z,103393.56
2023-02-11T08:47:00.517Z,103405.25
2023-02-11T08:49:34.072Z,103408.88
2023-02-11T08:52:07.173Z,103412.34
2023-02-11T08:54:40.251Z,103411.69
2023-02-11T08:57:13.347Z,103412.97
2023-02-11T08:59:46.224Z,103410.16
2023-02-11T09:02:20.251Z,103423.75
2023-02-11T09:04:53.067Z,103418.88
2023-02-11T09:07:26.010Z,103413.41
2023-02-11T09:09:58.686Z,103418.75
2023-02-11T09:12:31.446Z,103420.50
2023-02-11T09:15:04.401Z,103429.00
2023-02-11T09:17:40.869Z,103430.13
2023-02-11T09:20:13.668Z,103429.09
2023-02-11T09:22:47.697Z,103427.28
2023-02-11T09:25:20.453Z,103428.75
2023-02-11T09:27:53.862Z,103427.28
2023-02-11T09:30:27.016Z,103427.88
2023-02-11T09:33:01.146Z,103422.09
2023-02-11T09:35:34.830Z,103424.47
2023-02-11T09:38:07.902Z,103430.47
2023-02-11T09:40:43.672Z,103432.16
2023-02-11T09:43:21.078Z,103437.56
2023-02-11T09:45:56.749Z,103436.97
2023-02-11T09:48:39.530Z,103439.03
2023-02-11T09:51:21.168Z,103439.03
2023-02-11T09:54:00.922Z,103442.13
2023-02-11T09:56:34.759Z,103442.56
2023-02-11T09:59:11.343Z,103448.25
2023-02-11T10:01:50.405Z,103446.06
2023-02-11T10:04:39.634Z,103450.84
2023-02-11T10:07:20.578Z,103453.59
2023-02-11T10:10:03.618Z,103450.66
2023-02-11T10:12:48.481Z,103451.47
2023-02-11T10:15:31.924Z,103458.06
2023-02-11T10:18:33.409Z,103456.66
2023-02-11T10:21:18.899Z,103463.78
2023-02-11T10:23:55.411Z,103478.41
2023-02-11T10:26:31.902Z,103478.84
2023-02-11T10:29:15.206Z,103483.50
2023-02-11T10:31:50.402Z,103487.19
2023-02-11T10:34:23.197Z,103484.38
2023-02-11T10:36:57.416Z,103498.88
2023-02-11T10:39:30.317Z,103504.56
2023-02-11T10:42:06.012Z,103503.78
2023-02-11T10:44:40.175Z,103500.00
2023-02-11T10:47:18.945Z,103499.41
2023-02-11T10:49:52.227Z,103502.31
2023-02-11T10:52:30.516Z,103503.50
2023-02-11T10:55:06.921Z,103503.88
2023-02-11T10:57:44.629Z,103511.09
2023-02-11T11:00:36.788Z,103514.75
2023-02-11T11:03:19.995Z,103518.09
2023-02-11T11:05:57.236Z,103517.81
2023-02-11T11:08:42.870Z,103511.91
2023-02-11T11:11:17.654Z,103517.19
2023-02-11T11:13:57.996Z,103524.50
2023-02-11T11:16:32.309Z,103525.72
2023-02-11T11:19:21.349Z,103525.81
2023-02-11T11:21:57.239Z,103522.69
2023-02-11T11:24:34.861Z,103522.34
2023-02-11T11:27:08.201Z,103532.31
2023-02-11T11:29:47.246Z,103518.31
2023-02-11T11:32:23.582Z,103533.44
2023-02-11T11:35:00.367Z,103524.00
2023-02-11T11:37:35.962Z,103520.31
2023-02-11T11:40:23.957Z,103525.78
2023-02-11T11:43:16.342Z,103520.66
2023-02-11T11:45:56.812Z,103526.63
2023-02-11T11:48:35.809Z,103519.03
2023-02-11T11:51:12.398Z,103524.00
2023-02-11T11:53:51.720Z,103523.41
2023-02-11T11:56:30.000Z,103519.34
2023-02-11T11:59:11.320Z,103523.91
2023-02-11T12:02:03.094Z,103525.53
2023-02-11T12:04:56.866Z,103522.78
2023-02-11T12:07:43.948Z,103519.34
2023-02-11T12:10:30.739Z,103522.97
2023-02-11T12:13:25.025Z,103515.66
2023-02-11T12:16:07.048Z,103524.00
2023-02-11T12:19:01.872Z,103530.84
2023-02-11T12:21:46.515Z,103537.53
2023-02-11T12:24:33.033Z,103535.91
2023-02-11T12:27:15.490Z,103545.56
2023-02-11T12:30:03.004Z,103540.78
2023-02-11T12:32:43.915Z,103537.53
2023-02-11T12:35:38.503Z,103534.38
2023-02-11T12:38:35.884Z,103528.69
2023-02-11T12:41:45.127Z,103536.63
2023-02-11T12:44:27.097Z,103530.44
2023-02-11T12:47:07.649Z,103539.16
2023-02-11T12:50:08.874Z,103535.00
2023-02-11T12:52:56.705Z,103535.00
2023-02-11T12:55:38.184Z,103520.38
2023-02-11T12:58:16.459Z,103529.91
2023-02-11T13:00:52.509Z,103532.25
2023-02-11T13:03:33.195Z,103537.59
2023-02-11T13:06:10.405Z,103533.22
2023-02-11T13:08:48.255Z,103537.06
2023-02-11T13:11:25.420Z,103532.78
2023-02-11T13:14:03.165Z,103524.69
2023-02-11T13:16:43.395Z,103532.00
2023-02-11T13:19:25.071Z,103529.16
2023-02-11T13:22:11.236Z,103531.91
2023-02-11T13:24:45.878Z,103522.03
2023-02-11T13:27:31.029Z,103509.81
2023-02-11T13:30:23.573Z,103520.38
2023-02-11T13:33:21.131Z,103522.22
2023-02-11T13:36:15.805Z,103519.34
2023-02-11T13:38:58.190Z,103520.75
2023-02-11T13:41:34.876Z,103518.22
2023-02-11T13:44:23.225Z,103516.69
2023-02-11T13:46:59.775Z,103514.44
2023-02-11T13:49:37.537Z,103516.59
2023-02-11T13:52:26.016Z,103510.97
2023-02-11T13:55:07.053Z,103513.72
2023-02-11T13:57:41.661Z,103516.69
2023-02-11T14:00:46.294Z,103517.00
2023-02-11T14:07:47.617Z,103513.63
2023-02-11T14:10:52.382Z,103515.06
2023-02-11T14:13:29.204Z,103505.69
2023-02-11T14:16:13.483Z,103503.88
2023-02-11T14:19:03.157Z,103510.50
2023-02-11T14:21:43.190Z,103517.09
2023-02-11T14:24:48.531Z,103515.97
2023-02-11T14:27:41.174Z,103512.63
2023-02-11T14:30:31.177Z,103506.63
2023-02-11T14:33:21.112Z,103511.31
2023-02-11T14:36:10.221Z,103518.50
2023-02-11T14:38:59.495Z,103526.06
2023-02-11T14:41:41.255Z,103526.88
2023-02-11T14:44:20.143Z,103524.16
2023-02-11T14:46:55.683Z,103515.59
2023-02-11T14:49:32.108Z,103511.22
2023-02-11T14:52:17.089Z,103508.47
2023-02-11T14:54:52.424Z,103520.59
2023-02-11T14:57:28.131Z,103522.13
2023-02-11T15:00:03.209Z,103524.63
2023-02-11T15:02:38.783Z,103526.56
2023-02-11T15:05:17.201Z,103524.78
2023-02-11T15:07:52.817Z,103519.56
2023-02-11T15:10:32.506Z,103531.28
2023-02-11T15:13:08.183Z,103522.44
2023-02-11T15:15:41.529Z,103523.53
2023-02-11T15:18:22.826Z,103531.97
2023-02-11T15:20:56.224Z,103533.09
2023-02-11T15:23:32.217Z,103531.16
2023-02-11T15:26:16.689Z,103536.75
2023-02-11T15:28:52.147Z,103546.84
2023-02-11T15:31:27.560Z,103548.88
2023-02-11T15:34:08.933Z,103545.09
2023-02-11T15:36:42.247Z,103542.34
2023-02-11T15:39:31.600Z,103552.34
2023-02-11T15:42:21.679Z,103540.72
2023-02-11T15:45:25.327Z,103549.69
2023-02-11T15:48:00.134Z,103545.81
2023-02-11T15:50:37.117Z,103548.69
2023-02-11T15:53:24.109Z,103552.31
2023-02-11T15:56:04.019Z,103553.34
2023-02-11T15:58:42.114Z,103548.28
2023-02-11T16:01:19.705Z,103538.28
2023-02-11T16:03:52.782Z,103543.19
2023-02-11T16:06:30.863Z,103537.28
2023-02-11T16:09:06.238Z,103542.25
2023-02-11T16:11:58.140Z,103542.38
2023-02-11T16:14:37.214Z,103543.59
2023-02-11T16:17:26.002Z,103544.41
2023-02-11T16:20:01.705Z,103546.63
2023-02-11T16:22:40.279Z,103549.44
2023-02-11T16:25:23.123Z,103556.56
2023-02-11T16:27:57.027Z,103558.78
2023-02-11T16:30:38.157Z,103562.53
2023-02-11T16:33:20.307Z,103561.94
2023-02-11T17:02:45.024Z,103587.56
2023-02-11T17:05:25.223Z,103592.03
2023-02-11T17:07:58.436Z,103599.75
2023-02-11T17:10:32.518Z,103607.34
2023-02-11T17:13:06.082Z,103610.69
2023-02-11T17:15:40.351Z,103608.47
2023-02-11T17:18:15.303Z,103613.53
2023-02-11T17:20:48.540Z,103608.56
2023-02-11T17:23:21.457Z,103610.47
2023-02-11T17:35:09.287Z,103611.47
2023-02-11T17:37:42.170Z,103614.72
2023-02-11T19:18:55.161Z,103670.47
2023-02-11T19:21:28.366Z,103661.59
2023-02-11T19:24:09.113Z,103656.19
2023-02-11T19:26:45.052Z,103658.91
2023-02-11T19:29:23.567Z,103658.72
2023-02-11T19:32:02.029Z,103659.53
2023-02-11T19:34:41.564Z,103665.31
2023-02-11T19:37:17.404Z,103665.81
2023-02-11T19:39:50.643Z,103668.03
2023-02-11T19:42:26.548Z,103671.91
2023-02-11T19:45:00.864Z,103675.16
2023-02-11T19:47:34.241Z,103682.25
2023-02-11T19:50:14.593Z,103686.66
2023-02-11T19:52:50.089Z,103680.38
2023-02-11T19:55:30.411Z,103681.19
2023-02-11T19:58:04.846Z,103689.41
2023-02-11T20:03:42.482Z,103692.16
2023-02-11T20:06:21.311Z,103693.81
2023-02-11T20:08:58.418Z,103699.84
2023-02-11T20:11:32.951Z,103687.50
2023-02-11T20:14:07.020Z,103688.31
2023-02-11T20:16:48.651Z,103698.09
2023-02-11T20:19:27.268Z,103688.03
2023-02-11T20:22:02.204Z,103703.41
2023-02-11T20:24:38.362Z,103709.44
2023-02-11T20:27:13.644Z,103710.00
2023-02-11T20:29:46.868Z,103724.66
2023-02-11T20:32:20.086Z,103725.00
2023-02-11T20:34:53.515Z,103719.31
2023-02-11T20:37:29.156Z,103725.91
2023-02-11T20:40:02.573Z,103724.56
2023-02-11T20:42:36.448Z,103729.97
2023-02-11T20:45:10.904Z,103727.53
2023-02-11T20:47:44.279Z,103731.69
2023-02-11T20:50:17.725Z,103739.34
2023-02-11T20:52:52.104Z,103740.13
2023-02-11T20:55:25.076Z,103741.44
2023-02-11T20:57:57.965Z,103739.59
2023-02-11T21:00:31.125Z,103735.97
2023-02-11T21:03:04.885Z,103743.09
2023-02-11T21:05:37.906Z,103742.50
2023-02-11T21:08:12.580Z,103750.78
2023-02-11T21:10:49.572Z,103751.38
2023-02-11T21:13:22.507Z,103744.50
2023-02-11T21:15:57.130Z,103745.38
2023-02-11T21:18:30.234Z,103753.59
2023-02-11T21:21:06.939Z,103745.91
2023-02-11T21:23:41.333Z,103747.56
2023-02-11T21:26:14.591Z,103751.97
2023-02-11T21:28:48.684Z,103756.34
2023-02-11T21:31:23.284Z,103756.38
2023-02-11T21:33:56.801Z,103770.28
2023-02-11T21:36:31.079Z,103773.03
2023-02-11T21:39:06.004Z,103771.41
2023-02-11T21:41:39.245Z,103773.28
2023-02-11T21:44:12.233Z,103775.22
2023-02-11T21:46:45.047Z,103767.34
2023-02-11T21:49:19.723Z,103766.75
2023-02-11T21:51:52.704Z,103768.41
2023-02-11T21:54:31.969Z,103772.75
2023-02-11T21:57:05.133Z,103774.97
2023-02-11T21:59:38.574Z,103782.00
2023-02-11T22:02:12.137Z,103789.47
2023-02-11T22:04:45.203Z,103786.50
2023-02-11T22:07:18.479Z,103786.00
2023-02-11T22:09:54.774Z,103784.91
2023-02-11T22:12:27.569Z,103793.66
2023-02-11T22:15:00.491Z,103795.88
2023-02-11T22:17:35.998Z,103792.03
2023-02-11T22:20:10.134Z,103783.50
2023-02-11T22:22:43.183Z,103790.88
2023-02-11T22:25:17.377Z,103788.13
2023-02-11T22:27:50.445Z,103787.28
2023-02-11T22:30:23.254Z,103799.59
2023-02-11T22:32:56.109Z,103792.03
2023-02-11T22:35:29.432Z,103793.66
2023-02-11T22:38:05.214Z,103792.03
2023-02-11T22:40:43.861Z,103785.50
2023-02-11T22:43:16.778Z,103784.41
2023-02-11T22:45:49.857Z,103784.91
2023-02-11T22:48:23.321Z,103783.34
2023-02-11T22:50:56.126Z,103782.78
2023-02-11T22:53:28.953Z,103783.28
2023-02-11T22:56:07.210Z,103783.00
2023-02-11T22:58:40.337Z,103789.84
2023-02-11T23:01:13.810Z,103796.38
2023-02-11T23:03:46.966Z,103788.13
2023-02-11T23:06:20.181Z,103793.09
2023-02-11T23:08:53.096Z,103784.28
2023-02-11T23:11:28.651Z,103794.94
2023-02-11T23:14:02.679Z,103798.56
2023-02-11T23:16:36.172Z,103794.72
2023-02-11T23:19:10.108Z,103798.56
2023-02-11T23:21:42.982Z,103805.66
2023-02-11T23:24:16.666Z,103799.38
2023-02-11T23:26:51.080Z,103802.47
2023-02-11T23:29:24.256Z,103801.34
2023-02-11T23:31:58.952Z,103806.00
2023-02-11T23:34:32.807Z,103801.34
2023-02-11T23:37:05.805Z,103804.91
2023-02-11T23:39:39.437Z,103805.19
2023-02-11T23:42:13.959Z,103804.13
2023-02-11T23:44:50.037Z,103801.94
2023-02-11T23:47:23.524Z,103805.78
2023-02-11T23:49:59.336Z,103798.91
2023-02-11T23:52:32.636Z,103808.53
2023-02-11T23:55:06.241Z,103804.38
2023-02-11T23:57:40.614Z,103804.69
